Flugplatz Oehna

Für EDBO sind keine METAR/TAF Berichte vorhanden.
Es werden die Flugwettermeldungen vom Flugplatz Holzdorf Airport in 16 km Entfernung angezeigt.

Bericht für ETSH

vom 23.02. um 23:20 UTC

Wind 15 kt aus 280° in Böen 27 kt

Sichtweite 10 km oder mehr

aufgebrochene Bewölkung in 2700 ft

Temperatur 5.0°C

Taupunkt 1.0°C

Luftfeuchtigkeit 75%

Luftdruck 1014 hPa

ETSH 232320Z 28015G27KT 9999 BKN027 05/01 Q1014 BLU
Keine Prognose (TAF) verfügbar.
Impressum